createdAt,value
2023-05-10T00:02:17.827Z,36.17
2023-05-10T00:04:47.436Z,34.78
2023-05-10T00:07:18.452Z,34.75
2023-05-10T00:09:48.078Z,36.38
2023-05-10T00:12:17.687Z,37.60
2023-05-10T00:14:47.607Z,35.15
2023-05-10T00:17:17.452Z,34.85
2023-05-10T00:19:47.911Z,33.67
2023-05-10T00:22:17.511Z,32.78
2023-05-10T00:24:47.132Z,35.53
2023-05-10T00:27:16.944Z,37.80
2023-05-10T00:29:46.581Z,34.80
2023-05-10T00:32:16.556Z,38.92
2023-05-10T00:34:46.294Z,35.55
2023-05-10T00:37:15.935Z,34.08
2023-05-10T00:39:45.552Z,32.92
2023-05-10T00:42:15.222Z,31.40
2023-05-10T00:44:45.041Z,32.92
2023-05-10T00:47:14.748Z,34.47
2023-05-10T00:49:44.834Z,33.40
2023-05-10T00:52:14.464Z,35.22
2023-05-10T00:54:44.199Z,31.35
2023-05-10T00:57:14.257Z,31.35
2023-05-10T00:59:44.125Z,31.85
2023-05-10T01:02:15.609Z,28.40
2023-05-10T01:04:46.093Z,32.08
2023-05-10T01:07:15.792Z,31.48
2023-05-10T01:09:45.447Z,29.30
2023-05-10T01:12:15.440Z,24.60
2023-05-10T01:14:45.432Z,27.80
2023-05-10T01:17:16.280Z,30.05
2023-05-10T01:19:45.978Z,31.33
2023-05-10T01:22:54.891Z,31.13
2023-05-10T01:26:00.306Z,25.42
2023-05-10T01:28:57.345Z,25.95
2023-05-10T01:31:54.948Z,26.55
2023-05-10T01:34:30.645Z,28.73
2023-05-10T01:37:14.146Z,24.05
2023-05-10T01:40:21.385Z,24.10
2023-05-10T01:42:57.867Z,22.60
2023-05-10T01:45:53.675Z,21.90
2023-05-10T01:48:24.155Z,23.45
2023-05-10T01:50:55.340Z,26.83
2023-05-10T01:53:25.738Z,26.00
2023-05-10T01:55:58.198Z,25.80
2023-05-10T01:58:39.387Z,27.65
2023-05-10T02:01:10.553Z,24.10
2023-05-10T02:03:43.859Z,22.30
2023-05-10T02:06:15.875Z,22.63
2023-05-10T02:08:49.228Z,24.05
2023-05-10T02:11:20.646Z,27.20
2023-05-10T02:13:52.281Z,24.00
2023-05-10T02:16:26.959Z,24.45
2023-05-10T02:18:58.969Z,22.13
2023-05-10T02:21:31.047Z,22.08
2023-05-10T02:24:02.504Z,22.20
2023-05-10T02:26:34.408Z,23.10
2023-05-10T02:29:06.668Z,24.27
2023-05-10T02:31:38.023Z,21.67
2023-05-10T02:34:09.919Z,21.05
2023-05-10T02:36:41.421Z,23.77
2023-05-10T02:39:15.183Z,26.27
2023-05-10T02:41:46.387Z,24.58
2023-05-10T02:44:20.770Z,21.55
2023-05-10T02:46:50.637Z,18.55
2023-05-10T02:49:21.238Z,19.38
2023-05-10T02:52:02.217Z,24.63
2023-05-10T02:54:36.142Z,25.45
2023-05-10T02:57:09.454Z,23.25
2023-05-10T02:59:39.541Z,20.00
2023-05-10T03:02:09.495Z,20.27
2023-05-10T03:04:39.122Z,20.92
2023-05-10T03:07:09.218Z,20.15
2023-05-10T03:09:39.075Z,22.55
2023-05-10T03:12:11.237Z,20.80
2023-05-10T03:14:52.824Z,19.30
2023-05-10T03:17:49.860Z,20.67
2023-05-10T03:20:38.755Z,18.33
2023-05-10T03:23:34.878Z,16.95
2023-05-10T03:26:05.991Z,18.00
2023-05-10T03:28:37.947Z,15.73
2023-05-10T03:31:09.242Z,15.32
2023-05-10T03:33:38.887Z,14.18
2023-05-10T03:36:09.231Z,14.50
2023-05-10T03:38:38.816Z,13.75
2023-05-10T03:41:08.565Z,12.27
2023-05-10T03:43:39.083Z,13.10
2023-05-10T03:46:09.471Z,12.38
2023-05-10T03:48:39.232Z,12.73
2023-05-10T03:51:08.822Z,13.13
2023-05-10T03:53:38.424Z,14.77
2023-05-10T03:56:08.210Z,14.02
2023-05-10T03:58:37.830Z,16.23
2023-05-10T04:01:07.589Z,15.65
2023-05-10T04:03:38.861Z,17.73
2023-05-10T04:06:10.718Z,19.20
2023-05-10T04:08:40.551Z,16.13
2023-05-10T04:11:11.525Z,16.48
2023-05-10T04:13:41.549Z,16.20
2023-05-10T04:16:11.124Z,15.82
2023-05-10T04:18:42.125Z,14.70
2023-05-10T04:21:18.302Z,17.73
2023-05-10T04:23:48.113Z,16.42
2023-05-10T04:26:18.271Z,16.02
2023-05-10T04:28:48.100Z,16.13
2023-05-10T04:31:17.721Z,14.55
2023-05-10T04:33:47.323Z,13.68
2023-05-10T04:36:16.962Z,14.13
2023-05-10T04:38:46.527Z,12.77
2023-05-10T04:41:16.092Z,13.07
2023-05-10T04:43:45.766Z,10.32
2023-05-10T04:46:15.420Z,10.73
2023-05-10T04:48:45.152Z,12.80
2023-05-10T04:51:14.876Z,9.32
2023-05-10T04:53:48.577Z,10.50
2023-05-10T04:56:27.342Z,9.77
2023-05-10T04:58:57.049Z,10.35
2023-05-10T05:01:26.736Z,10.52
2023-05-10T05:03:56.595Z,11.20
2023-05-10T05:06:27.489Z,10.68
2023-05-10T05:08:57.144Z,9.43
2023-05-10T05:11:28.003Z,9.30
2023-05-10T05:13:57.693Z,8.98
2023-05-10T05:16:28.058Z,9.00
2023-05-10T05:18:59.053Z,9.52
2023-05-10T05:21:29.663Z,10.23
2023-05-10T05:23:59.272Z,9.00
2023-05-10T05:26:30.063Z,8.80
2023-05-10T05:28:59.687Z,8.35
2023-05-10T05:31:29.299Z,7.43
2023-05-10T05:33:59.021Z,8.88
2023-05-10T05:36:28.687Z,10.63
2023-05-10T05:38:58.259Z,11.27
2023-05-10T05:41:28.517Z,10.88
2023-05-10T05:43:58.131Z,9.32
2023-05-10T05:46:27.730Z,10.23
2023-05-10T05:48:57.339Z,10.23
2023-05-10T05:51:27.101Z,11.07
2023-05-10T05:53:56.676Z,11.23
2023-05-10T05:56:26.902Z,11.93
2023-05-10T05:58:56.525Z,13.55
2023-05-10T06:01:26.169Z,11.60
2023-05-10T06:03:55.900Z,13.70
2023-05-10T06:06:25.693Z,11.88
2023-05-10T06:08:55.371Z,12.20
2023-05-10T06:11:25.414Z,13.32
2023-05-10T06:13:55.089Z,12.27
2023-05-10T06:16:25.008Z,11.95
2023-05-10T06:18:54.727Z,12.32
2023-05-10T06:21:24.331Z,12.20
2023-05-10T06:23:53.899Z,11.35
2023-05-10T06:26:23.554Z,11.43
2023-05-10T06:28:53.183Z,12.60
2023-05-10T06:31:23.467Z,12.80
2023-05-10T06:33:55.311Z,11.88
2023-05-10T06:36:28.801Z,12.05
2023-05-10T06:38:58.669Z,12.00
2023-05-10T06:41:28.267Z,11.13
2023-05-10T06:43:58.146Z,11.80
2023-05-10T06:46:28.116Z,12.82
2023-05-10T06:48:57.681Z,10.77
2023-05-10T06:51:27.505Z,10.32
2023-05-10T06:53:57.104Z,12.20
2023-05-10T06:56:26.620Z,10.95
2023-05-10T06:58:56.326Z,9.68
2023-05-10T07:01:25.971Z,11.25
2023-05-10T07:03:55.696Z,9.85
2023-05-10T07:06:33.415Z,9.65
2023-05-10T07:09:04.003Z,10.57
2023-05-10T07:11:33.667Z,9.63
2023-05-10T07:14:03.319Z,11.18
2023-05-10T07:16:32.887Z,12.25
2023-05-10T07:19:02.602Z,10.98
2023-05-10T07:21:32.295Z,10.80
2023-05-10T07:24:02.768Z,11.63
2023-05-10T07:26:32.508Z,11.77
2023-05-10T07:29:02.211Z,12.68
2023-05-10T07:31:31.935Z,13.48
2023-05-10T07:34:01.792Z,12.90
2023-05-10T07:36:31.411Z,11.60
2023-05-10T07:39:00.965Z,12.75
2023-05-10T07:41:30.565Z,11.05
2023-05-10T07:44:00.195Z,12.05
2023-05-10T07:46:29.926Z,11.65
2023-05-10T07:49:00.855Z,13.88
2023-05-10T07:51:31.130Z,12.68
2023-05-10T07:54:00.802Z,15.90
2023-05-10T07:56:34.307Z,15.00
2023-05-10T07:59:06.113Z,18.38
2023-05-10T08:01:37.365Z,18.83
2023-05-10T08:04:07.207Z,17.63
2023-05-10T08:06:36.984Z,26.50
2023-05-10T08:09:06.694Z,26.00
2023-05-10T08:11:36.294Z,29.60
2023-05-10T08:14:05.941Z,25.52
2023-05-10T08:16:35.534Z,27.38
2023-05-10T08:19:05.335Z,26.20
2023-05-10T08:21:35.172Z,24.25
2023-05-10T08:24:04.795Z,23.15
2023-05-10T08:26:35.450Z,25.50
2023-05-10T08:29:05.078Z,30.30
2023-05-10T08:31:34.783Z,31.23
2023-05-10T08:34:04.374Z,24.15
2023-05-10T08:36:34.548Z,32.60
2023-05-10T08:39:04.241Z,30.30
2023-05-10T08:41:39.450Z,24.58
2023-05-10T08:44:11.600Z,28.23
2023-05-10T08:46:46.569Z,32.47
2023-05-10T08:49:22.888Z,27.02
2023-05-10T08:51:56.536Z,24.33
2023-05-10T08:54:27.440Z,27.30
2023-05-10T08:56:57.132Z,23.27
2023-05-10T08:59:26.842Z,30.23
2023-05-10T09:01:58.860Z,26.23
2023-05-10T09:04:28.834Z,29.42
2023-05-10T09:06:58.672Z,26.77
2023-05-10T09:09:30.228Z,25.40
2023-05-10T09:12:00.189Z,23.48
2023-05-10T09:14:30.482Z,25.35
2023-05-10T09:17:00.245Z,19.05
2023-05-10T09:19:31.348Z,22.77
2023-05-10T09:22:02.744Z,20.25
2023-05-10T09:24:33.628Z,20.48
2023-05-10T09:27:04.720Z,23.63
2023-05-10T09:29:46.659Z,20.77
2023-05-10T09:32:18.303Z,18.73
2023-05-10T09:34:48.436Z,20.65
2023-05-10T09:37:17.991Z,17.50
2023-05-10T09:39:47.492Z,19.38
2023-05-10T09:42:21.880Z,19.23
2023-05-10T09:44:51.487Z,19.83
2023-05-10T09:47:21.750Z,16.45
2023-05-10T09:49:55.590Z,17.02
2023-05-10T09:52:25.122Z,15.05
2023-05-10T09:54:58.054Z,14.27
2023-05-10T09:57:28.566Z,15.05
2023-05-10T10:00:00.087Z,17.15
2023-05-10T10:02:32.224Z,13.70
2023-05-10T10:05:06.674Z,15.05
2023-05-10T10:07:37.635Z,16.10
2023-05-10T10:10:07.846Z,18.08
2023-05-10T10:12:38.202Z,16.00
2023-05-10T10:15:09.242Z,16.25
2023-05-10T10:17:43.159Z,16.08
2023-05-10T10:20:13.721Z,15.60
2023-05-10T10:22:43.375Z,16.73
2023-05-10T10:25:19.183Z,16.17
2023-05-10T10:28:08.751Z,14.68
2023-05-10T10:30:51.398Z,15.65
2023-05-10T10:33:42.710Z,16.33
2023-05-10T10:36:13.027Z,16.88
2023-05-10T10:38:51.621Z,14.80
2023-05-10T10:41:37.391Z,13.45
2023-05-10T10:44:27.891Z,13.70
2023-05-10T10:47:08.321Z,15.00
2023-05-10T10:49:44.076Z,13.45
2023-05-10T10:52:30.231Z,12.13
2023-05-10T10:55:32.276Z,13.43
2023-05-10T10:58:06.710Z,14.18
2023-05-10T11:00:40.883Z,14.45
2023-05-10T11:03:16.973Z,14.95
2023-05-10T11:05:47.069Z,13.27
2023-05-10T11:08:19.372Z,14.32
2023-05-10T11:11:06.791Z,14.48
2023-05-10T11:13:49.947Z,13.73
2023-05-10T11:16:27.836Z,12.15
2023-05-10T11:19:06.370Z,11.27
2023-05-10T11:21:37.614Z,11.55
2023-05-10T11:24:17.373Z,11.80
2023-05-10T11:26:47.073Z,12.45
2023-05-10T11:29:17.429Z,11.77
2023-05-10T11:31:49.012Z,11.50
2023-05-10T11:34:32.855Z,11.90
2023-05-10T11:37:03.441Z,11.35
2023-05-10T11:39:35.938Z,11.38
2023-05-10T11:42:05.606Z,13.77
2023-05-10T11:44:36.204Z,12.07
2023-05-10T11:47:06.028Z,12.50
2023-05-10T11:49:35.646Z,12.73
2023-05-10T11:52:10.044Z,12.45
2023-05-10T11:54:39.836Z,11.55
2023-05-10T11:57:09.413Z,11.43
2023-05-10T11:59:41.724Z,11.95
2023-05-10T12:02:13.756Z,10.73
2023-05-10T12:04:44.283Z,10.38
2023-05-10T12:07:13.927Z,12.27
2023-05-10T12:10:10.234Z,10.25
2023-05-10T12:12:47.615Z,10.80
2023-05-10T12:15:25.006Z,9.55
2023-05-10T12:17:54.782Z,11.00
2023-05-10T12:20:26.630Z,9.27
2023-05-10T12:23:00.592Z,9.60
2023-05-10T12:25:37.893Z,9.32
2023-05-10T12:28:09.681Z,10.73
2023-05-10T12:30:40.426Z,10.88
2023-05-10T12:33:20.541Z,9.77
2023-05-10T12:35:53.196Z,8.90
2023-05-10T12:38:33.509Z,9.50
2023-05-10T12:41:04.998Z,12.38
2023-05-10T12:43:35.422Z,10.63
2023-05-10T12:46:31.238Z,10.23
2023-05-10T12:49:08.435Z,12.27
2023-05-10T12:51:38.853Z,10.30
2023-05-10T12:54:08.479Z,12.68
2023-05-10T12:56:39.500Z,10.60
2023-05-10T12:59:09.078Z,10.15
2023-05-10T13:01:38.850Z,9.80
2023-05-10T13:04:08.621Z,10.20
2023-05-10T13:06:38.227Z,11.45
2023-05-10T13:09:07.841Z,12.30
2023-05-10T13:11:37.684Z,10.90
2023-05-10T13:14:07.431Z,10.32
2023-05-10T13:16:37.124Z,9.70
2023-05-10T13:19:06.935Z,9.43
2023-05-10T13:21:36.561Z,8.98
2023-05-10T13:24:06.212Z,9.45
2023-05-10T13:26:35.962Z,9.77
2023-05-10T13:29:06.194Z,9.10
2023-05-10T13:31:36.476Z,9.10
2023-05-10T13:34:06.708Z,7.93
2023-05-10T13:36:36.315Z,9.77
2023-05-10T13:39:07.739Z,9.93
2023-05-10T13:41:37.263Z,9.27
2023-05-10T13:44:06.862Z,8.95
2023-05-10T13:46:36.445Z,10.43
2023-05-10T13:49:05.995Z,9.18
2023-05-10T13:51:36.585Z,10.13
2023-05-10T13:54:06.498Z,9.55
2023-05-10T13:56:36.076Z,11.65
2023-05-10T13:59:05.675Z,9.57
2023-05-10T14:01:35.304Z,10.25
2023-05-10T14:04:05.156Z,10.32
2023-05-10T14:06:34.906Z,10.10
2023-05-10T14:09:04.737Z,10.32
2023-05-10T14:11:34.283Z,9.80
2023-05-10T14:14:04.053Z,9.48
2023-05-10T14:16:33.774Z,9.98
2023-05-10T14:19:04.235Z,10.18
2023-05-10T14:21:33.959Z,9.90
2023-05-10T14:24:03.690Z,9.68
2023-05-10T14:26:33.815Z,9.52
2023-05-10T14:29:03.486Z,8.60
2023-05-10T14:31:33.285Z,8.77
2023-05-10T14:34:02.928Z,9.00
2023-05-10T14:36:32.517Z,11.10
2023-05-10T14:39:02.146Z,8.98
2023-05-10T14:41:32.687Z,10.02
2023-05-10T14:44:02.349Z,9.88
2023-05-10T14:46:32.490Z,9.35
2023-05-10T14:49:02.332Z,9.15
2023-05-10T14:51:32.189Z,9.98
2023-05-10T14:54:02.085Z,8.90
2023-05-10T14:56:31.693Z,8.88
2023-05-10T14:59:02.649Z,10.23
2023-05-10T15:01:34.239Z,9.35
2023-05-10T15:04:04.390Z,10.30
2023-05-10T15:06:36.332Z,9.32
2023-05-10T15:09:06.493Z,9.15
2023-05-10T15:11:36.075Z,8.75
2023-05-10T15:14:05.686Z,10.80
2023-05-10T15:16:36.252Z,10.35
2023-05-10T15:19:06.150Z,10.20
2023-05-10T15:21:41.129Z,9.90
2023-05-10T15:24:12.092Z,10.23
2023-05-10T15:26:41.812Z,9.77
2023-05-10T15:29:11.345Z,9.48
2023-05-10T15:31:42.015Z,10.55
2023-05-10T15:34:11.624Z,10.18
2023-05-10T15:36:41.149Z,10.98
2023-05-10T15:39:11.718Z,10.43
2023-05-10T15:41:41.436Z,11.18
2023-05-10T15:44:10.961Z,11.85
2023-05-10T15:46:40.780Z,11.10
2023-05-10T15:49:10.432Z,11.65
2023-05-10T15:51:39.998Z,11.85
2023-05-10T15:54:09.638Z,10.73
2023-05-10T15:56:39.621Z,10.77
2023-05-10T15:59:10.233Z,11.23
2023-05-10T16:01:40.025Z,12.60
2023-05-10T16:04:10.009Z,11.52
2023-05-10T16:06:39.717Z,11.95
2023-05-10T16:09:09.327Z,10.57
2023-05-10T16:11:39.072Z,10.25
2023-05-10T16:14:08.949Z,9.75
2023-05-10T16:16:38.649Z,10.00
2023-05-10T16:19:08.848Z,9.95
2023-05-10T16:21:39.580Z,9.50
2023-05-10T16:24:09.370Z,8.88
2023-05-10T16:26:42.275Z,8.95
2023-05-10T16:29:12.188Z,11.35
2023-05-10T16:31:41.745Z,9.25
2023-05-10T16:34:11.569Z,9.20
2023-05-10T16:36:41.122Z,9.00
2023-05-10T16:39:13.550Z,9.57
2023-05-10T16:41:43.181Z,9.52
2023-05-10T16:44:12.734Z,9.32
2023-05-10T16:46:42.440Z,10.15
2023-05-10T16:49:13.829Z,9.65
2023-05-10T16:51:43.430Z,10.80
2023-05-10T16:54:13.089Z,10.45
2023-05-10T16:56:42.998Z,10.30
2023-05-10T16:59:12.527Z,9.00
2023-05-10T17:01:42.153Z,9.52
2023-05-10T17:04:11.914Z,9.23
2023-05-10T17:06:41.679Z,10.63
2023-05-10T17:09:11.243Z,9.63
2023-05-10T17:11:40.777Z,9.57
2023-05-10T17:14:11.592Z,9.70
2023-05-10T17:16:41.375Z,10.50
2023-05-10T17:19:11.542Z,10.20
2023-05-10T17:21:41.106Z,10.00
2023-05-10T17:24:10.818Z,13.63
2023-05-10T17:26:40.395Z,10.68
2023-05-10T17:29:10.306Z,10.10
2023-05-10T17:31:40.065Z,11.55
2023-05-10T17:34:09.722Z,11.73
2023-05-10T17:36:39.355Z,10.93
2023-05-10T17:39:09.146Z,10.40
2023-05-10T17:41:38.769Z,10.38
2023-05-10T17:44:08.922Z,11.10
2023-05-10T17:46:39.445Z,10.40
2023-05-10T17:49:09.045Z,9.20
2023-05-10T17:51:38.684Z,10.18
2023-05-10T17:54:08.283Z,9.90
2023-05-10T17:56:37.949Z,10.20
2023-05-10T17:59:07.719Z,9.55
2023-05-10T18:01:37.502Z,9.70
2023-05-10T18:04:07.594Z,10.30
2023-05-10T18:06:40.736Z,9.35
2023-05-10T18:09:11.172Z,10.13
2023-05-10T18:11:41.368Z,10.77
2023-05-10T18:14:10.980Z,10.32
2023-05-10T18:16:40.564Z,11.15
2023-05-10T18:19:10.251Z,10.65
2023-05-10T18:21:40.078Z,11.32
2023-05-10T18:24:09.850Z,12.07
2023-05-10T18:26:39.498Z,10.18
2023-05-10T18:29:09.178Z,10.05
2023-05-10T18:31:38.788Z,10.43
2023-05-10T18:34:08.447Z,11.75
2023-05-10T18:36:38.082Z,11.68
2023-05-10T18:39:07.680Z,9.50
2023-05-10T18:41:37.335Z,11.60
2023-05-10T18:44:07.005Z,11.90
2023-05-10T18:46:37.276Z,11.98
2023-05-10T18:49:07.943Z,10.80
2023-05-10T18:51:40.213Z,10.70
2023-05-10T18:54:09.799Z,11.05
2023-05-10T18:56:41.575Z,11.50
2023-05-10T18:59:11.163Z,11.35
2023-05-10T19:01:42.566Z,11.27
2023-05-10T19:04:12.129Z,11.20
2023-05-10T19:06:43.364Z,11.70
2023-05-10T19:09:13.417Z,11.30
2023-05-10T19:11:44.767Z,11.93
2023-05-10T19:14:14.572Z,11.70
2023-05-10T19:16:44.169Z,11.32
2023-05-10T19:19:13.855Z,11.32
2023-05-10T19:21:43.482Z,11.10
2023-05-10T19:24:13.959Z,11.55
2023-05-10T19:26:43.551Z,11.27
2023-05-10T19:29:13.175Z,11.93
2023-05-10T19:31:43.714Z,12.38
2023-05-10T19:34:13.405Z,11.90
2023-05-10T19:36:43.058Z,11.60
2023-05-10T19:39:13.091Z,13.20
2023-05-10T19:41:42.708Z,12.13
2023-05-10T19:44:12.316Z,11.68
2023-05-10T19:46:42.074Z,13.40
2023-05-10T19:49:11.799Z,12.73
2023-05-10T19:51:41.547Z,12.60
2023-05-10T19:54:11.291Z,13.70
2023-05-10T19:56:40.887Z,12.95
2023-05-10T19:59:11.176Z,13.80
2023-05-10T20:01:40.881Z,12.27
2023-05-10T20:04:11.597Z,13.05
2023-05-10T20:06:41.618Z,14.55
2023-05-10T20:09:11.645Z,12.32
2023-05-10T20:11:41.239Z,14.73
2023-05-10T20:14:11.431Z,13.27
2023-05-10T20:16:40.997Z,13.43
2023-05-10T20:19:10.738Z,12.68
2023-05-10T20:21:40.458Z,12.52
2023-05-10T20:24:11.716Z,11.80
2023-05-10T20:26:41.276Z,14.85
2023-05-10T20:29:11.107Z,12.25
2023-05-10T20:31:40.842Z,12.75
2023-05-10T20:34:10.531Z,12.40
2023-05-10T20:36:40.557Z,11.38
2023-05-10T20:39:10.884Z,12.15
2023-05-10T20:41:40.825Z,12.23
2023-05-10T20:44:10.532Z,12.93
2023-05-10T20:46:40.131Z,13.57
2023-05-10T20:49:11.414Z,12.90
2023-05-10T20:51:40.994Z,13.18
2023-05-10T20:54:10.630Z,12.80
2023-05-10T20:56:40.212Z,11.73
2023-05-10T20:59:09.841Z,14.82
2023-05-10T21:01:39.420Z,14.05
2023-05-10T21:04:09.002Z,12.55
2023-05-10T21:06:38.588Z,13.48
2023-05-10T21:09:08.667Z,11.63
2023-05-10T21:11:39.848Z,12.77
2023-05-10T21:14:10.175Z,13.35
2023-05-10T21:16:40.097Z,12.45
2023-05-10T21:19:10.252Z,13.02
2023-05-10T21:21:39.966Z,12.20
2023-05-10T21:24:09.755Z,12.20
2023-05-10T21:26:39.581Z,13.13
2023-05-10T21:29:09.645Z,13.80
2023-05-10T21:31:39.289Z,12.27
2023-05-10T21:34:08.902Z,12.63
2023-05-10T21:36:38.481Z,13.20
2023-05-10T21:39:08.074Z,13.13
2023-05-10T21:41:37.718Z,12.70
2023-05-10T21:44:07.396Z,13.40
2023-05-10T21:46:37.169Z,12.95
2023-05-10T21:49:06.823Z,13.82
2023-05-10T21:51:36.450Z,13.45
2023-05-10T21:54:06.162Z,13.32
2023-05-10T21:56:35.758Z,13.43
2023-05-10T21:59:05.929Z,12.50
2023-05-10T22:01:35.686Z,12.48
2023-05-10T22:04:05.312Z,12.98
2023-05-10T22:06:34.877Z,13.05
2023-05-10T22:09:04.586Z,13.43
2023-05-10T22:11:34.208Z,11.32
2023-05-10T22:14:03.800Z,11.38
2023-05-10T22:16:33.464Z,11.65
2023-05-10T22:19:03.133Z,11.95
2023-05-10T22:21:33.409Z,12.43
2023-05-10T22:24:03.121Z,11.30
2023-05-10T22:26:32.843Z,11.20
2023-05-10T22:29:02.490Z,11.50
2023-05-10T22:31:32.310Z,10.43
2023-05-10T22:34:02.054Z,11.88
2023-05-10T22:36:32.045Z,11.40
2023-05-10T22:39:01.626Z,11.00
2023-05-10T22:41:31.233Z,10.18
2023-05-10T22:44:00.946Z,11.07
2023-05-10T22:46:31.153Z,10.18
2023-05-10T22:49:01.678Z,11.00
2023-05-10T22:51:31.271Z,10.07
2023-05-10T22:54:01.019Z,9.13
2023-05-10T22:56:30.673Z,9.23
2023-05-10T22:59:00.466Z,9.65
2023-05-10T23:01:31.038Z,9.27
2023-05-10T23:04:00.715Z,10.23
2023-05-10T23:06:30.289Z,10.82
2023-05-10T23:08:59.902Z,9.30
2023-05-10T23:11:29.527Z,11.63
2023-05-10T23:13:59.113Z,9.82
2023-05-10T23:16:28.849Z,10.70
2023-05-10T23:18:58.622Z,10.23
2023-05-10T23:21:31.338Z,10.80
2023-05-10T23:24:01.949Z,10.40
2023-05-10T23:26:31.618Z,11.02
2023-05-10T23:29:03.348Z,11.88
2023-05-10T23:31:32.906Z,13.13
2023-05-10T23:34:02.503Z,12.40
2023-05-10T23:36:33.309Z,13.90
2023-05-10T23:39:02.898Z,14.18
2023-05-10T23:41:33.255Z,13.57
2023-05-10T23:44:06.122Z,16.25
2023-05-10T23:46:35.656Z,12.45
2023-05-10T23:49:05.379Z,14.43
2023-05-10T23:51:35.471Z,16.05
2023-05-10T23:54:05.121Z,18.50
2023-05-10T23:56:34.677Z,15.38
2023-05-10T23:59:04.290Z,16.33
